Sumifukumaru No.5 — JD3058 — position and weather

sailwx.info

Track history (hours):
 
Tides and Currents Weather Stations Pressure Air Temp Water Temp Dewpoint Dewpoint Depression Visibility Wind Speed Wind Dir Waves Ship Positions

Sumifukumaru No.5

Last reported at 2017-Jan-16 21:21 UTC. Time now 2017-Jan-17 17:14 UTC.
Position N 35°06' E 139°40'.

Length 75 m; draft 4.4 m.

Type: Cargo ship. MMSI: 431001371.

Date/timePositionNaut miles runAvg speedWind from/ knotsBaromVisibWave heightAir tempDewpointWater temp
2017-Jan-16 21:21N 35°06' E 139°40'1011.3
2017-Jan-16 20:30N 35°14' E 139°46'1010.4
2017-Jan-16 19:33N 35°24' E 139°43'6 5.8
2017-Jan-16 18:33N 35°22' E 139°50'0 0.0
2017-Jan-16 17:31N 35°22' E 139°50'0 0.0
2017-Jan-16 16:25N 35°22' E 139°50'0 0.0
2017-Jan-16 15:31N 35°22' E 139°50'0 0.0
2017-Jan-16 14:28N 35°22' E 139°50'0 0.0
2017-Jan-16 13:28N 35°22' E 139°50'0 0.0
2017-Jan-16 12:31N 35°22' E 139°50'0 0.0
2017-Jan-16 11:28N 35°22' E 139°50'0 0.0
2017-Jan-16 10:31N 35°22' E 139°50'0 0.0
2017-Jan-16 09:31N 35°22' E 139°50'0 0.0
2017-Jan-16 08:10N 35°22' E 139°50'0 0.1
2017-Jan-16 07:16N 35°22' E 139°50'0 0.0
2017-Jan-16 06:31N 35°22' E 139°50'0 0.0
2017-Jan-16 05:22N 35°22' E 139°50'0 0.1
2017-Jan-16 04:25N 35°22' E 139°50'0 0.0
2017-Jan-16 03:28N 35°22' E 139°50'0 0.0
2017-Jan-16 02:28N 35°22' E 139°50'0 0.0
2017-Jan-16 01:28N 35°22' E 139°50'0 0.0
2017-Jan-16 00:31N 35°22' E 139°50'1 1.2
2017-Jan-15 23:29N 35°22' E 139°51'0 0.0
2017-Jan-15 22:25N 35°22' E 139°51'0 0.0
2017-Jan-15 21:31N 35°22' E 139°51'0 0.0
2017-Jan-15 20:31N 35°22' E 139°51'0 0.0
2017-Jan-15 19:31N 35°22' E 139°51'0 0.0
2017-Jan-15 18:31N 35°22' E 139°51'0 0.0
2017-Jan-15 17:28N 35°22' E 139°51'0 0.0
2017-Jan-15 16:31N 35°22' E 139°51'0 0.0
2017-Jan-15 15:28N 35°22' E 139°51'0 0.0
2017-Jan-15 14:30N 35°22' E 139°51'0 0.0
2017-Jan-15 13:27N 35°22' E 139°51'0 0.0
2017-Jan-15 12:31N 35°22' E 139°51'0 0.0
2017-Jan-15 11:30N 35°22' E 139°51'0 0.0
2017-Jan-15 10:30N 35°22' E 139°51'0 0.0
2017-Jan-15 09:31N 35°22' E 139°51'0 0.0
2017-Jan-15 08:31N 35°22' E 139°51'0 0.0
2017-Jan-15 07:34N 35°22' E 139°51'0 0.0
2017-Jan-15 06:28N 35°22' E 139°51'0 0.0
2017-Jan-15 05:33N 35°22' E 139°51'0 0.0
2017-Jan-15 04:33N 35°22' E 139°51'0 0.0
2017-Jan-15 03:33N 35°22' E 139°51'0 0.0
2017-Jan-15 01:27N 35°22' E 139°51'0 0.0
2017-Jan-15 00:27N 35°22' E 139°51'0 0.0
2017-Jan-14 23:33N 35°22' E 139°51'0 0.0
2017-Jan-14 22:24N 35°22' E 139°51'0 0.0
2017-Jan-14 21:33N 35°22' E 139°51'0 0.0
2017-Jan-14 20:33N 35°22' E 139°51'0 0.0
2017-Jan-14 19:33N 35°22' E 139°51'0 0.0
2017-Jan-14 18:33N 35°22' E 139°51'0 0.0
2017-Jan-14 17:33N 35°22' E 139°51'0 0.0
2017-Jan-14 16:33N 35°22' E 139°51'0 0.0
2017-Jan-14 15:33N 35°22' E 139°51'0 0.0
2017-Jan-14 14:33N 35°22' E 139°51'0 0.0
2017-Jan-14 13:33N 35°22' E 139°51'0 0.0
2017-Jan-14 12:24N 35°22' E 139°51'0 0.0
2017-Jan-14 11:30N 35°22' E 139°51'0 0.4
2017-Jan-14 10:33N 35°21' E 139°51'5 5.4
2017-Jan-14 09:33N 35°27' E 139°49'1110.3
2017-Jan-14 08:31N 35°36' E 139°56'0 0.0
2017-Jan-14 07:32N 35°36' E 139°56'0 0.0
2017-Jan-14 06:32N 35°36' E 139°56'0 0.0
2017-Jan-14 05:32N 35°36' E 139°56'0 0.0
2017-Jan-14 04:32N 35°36' E 139°56'0 0.0
2017-Jan-14 03:29N 35°36' E 139°56'0 0.0
2017-Jan-13 23:29N 35°36' E 139°56'0 0.0
2017-Jan-13 22:29N 35°36' E 139°56'0 0.1
2017-Jan-13 21:33N 35°36' E 139°56'0 0.0
2017-Jan-13 20:33N 35°36' E 139°56'0 0.0
2017-Jan-13 19:33N 35°36' E 139°56'5 4.1
2017-Jan-13 18:26N 35°40' E 139°57'0 0.0
2017-Jan-13 14:27N 35°40' E 139°57'3 3.5
2017-Jan-13 13:33N 35°37' E 139°58'0 0.0
2017-Jan-13 12:33N 35°37' E 139°58'0 0.0
2017-Jan-13 11:33N 35°37' E 139°58'0 0.0
2017-Jan-13 10:33N 35°37' E 139°58'0 0.0
2017-Jan-13 09:33N 35°37' E 139°58'0 0.0
2017-Jan-13 08:33N 35°37' E 139°58'3 0.4
2017-Jan-13 00:14N 35°41' E 139°58'4 1.5
2017-Jan-12 21:33N 35°37' E 139°58'1111.4
2017-Jan-12 20:33N 35°27' E 139°50'1110.8
2017-Jan-12 19:33N 35°17' E 139°45'246 9.8
2017-Jan-11 18:33N 34°01' E 135°02'1212.0
2017-Jan-11 17:33N 34°13' E 135°02'1211.9
2017-Jan-11 16:31N 34°24' E 135°09'1212.0
2017-Jan-11 15:33N 34°33' E 135°18'7 6.7
2017-Jan-11 14:30N 34°34' E 135°27'0 0.0
2017-Jan-11 13:28N 34°34' E 135°27'0 0.0
2017-Jan-11 12:22N 34°34' E 135°27'0 0.2
2017-Jan-11 10:29N 34°34' E 135°27'0 0.0
2017-Jan-11 09:28N 34°34' E 135°27'0 0.0
2017-Jan-10 20:29N 34°34' E 135°27'0 0.0
2017-Jan-10 19:23N 34°34' E 135°27'0 0.0
2017-Jan-10 16:23N 34°34' E 135°27'0 0.1
2017-Jan-10 14:09N 34°34' E 135°27'0 0.3
2017-Jan-10 13:15N 34°34' E 135°27'0 0.0
2017-Jan-10 00:33N 34°34' E 135°27'0 0.1
2017-Jan-09 23:22N 34°34' E 135°27'7 8.4
2017-Jan-09 22:33N 34°33' E 135°19'1813.5
2017-Jan-09 21:11N 34°19' E 135°04'5 7.8
2017-Jan-09 20:33N 34°15' E 135°07'0 0.0
2017-Jan-09 19:33N 34°15' E 135°07'0 0.0
2017-Jan-09 18:33N 34°15' E 135°07'0 0.0
2017-Jan-09 17:09N 34°15' E 135°07'0 0.0
2017-Jan-09 16:33N 34°15' E 135°07'0 0.0
2017-Jan-09 15:33N 34°15' E 135°07'0 0.0
2017-Jan-09 14:33N 34°15' E 135°07'0 0.0
2017-Jan-09 13:27N 34°15' E 135°07'0 0.0
2017-Jan-09 12:33N 34°15' E 135°07'0 0.0
2017-Jan-09 11:33N 34°15' E 135°07'0 0.0
2017-Jan-09 10:33N 34°15' E 135°07'0 0.0
2017-Jan-09 09:27N 34°15' E 135°07'0 0.0
2017-Jan-09 08:33N 34°15' E 135°07'1 0.7
2017-Jan-09 07:34N 34°15' E 135°06'4 3.4
2017-Jan-09 06:21N 34°18' E 135°04'1011.9
2017-Jan-09 05:33N 34°26' E 135°11'1211.6
2017-Jan-09 04:31N 34°35' E 135°21'5 0.8
2017-Jan-08 22:32N 34°35' E 135°27'0 0.0
2017-Jan-08 15:21N 34°35' E 135°27'0 0.0
2017-Jan-08 14:09N 34°35' E 135°27'0 0.1
2017-Jan-08 13:09N 34°35' E 135°27'0 0.0
2017-Jan-08 11:09N 34°35' E 135°27'0 0.0
2017-Jan-08 10:09N 34°35' E 135°27'0 0.0
2017-Jan-08 05:21N 34°35' E 135°27'0 0.0
2017-Jan-08 04:21N 34°35' E 135°27'0 0.0
2017-Jan-08 01:15N 34°35' E 135°27'0 0.0
2017-Jan-07 23:09N 34°35' E 135°27'0 0.0
2017-Jan-07 22:09N 34°35' E 135°27'0 0.0
2017-Jan-07 21:27N 34°35' E 135°27'0 0.0
2017-Jan-07 20:15N 34°35' E 135°27'0 0.0
2017-Jan-07 18:33N 34°35' E 135°27'0 0.0
2017-Jan-07 15:25N 34°35' E 135°27'5 5.2
2017-Jan-07 14:33N 34°35' E 135°21'1111.1
2017-Jan-07 13:31N 34°27' E 135°12'1410.3
2017-Jan-07 12:10N 34°15' E 135°03'  
Track history (hours):
 
Tides and Currents Weather Stations Pressure Air Temp Water Temp Dewpoint Dewpoint Depression Visibility Wind Speed Wind Dir Waves Ship Positions

Sumifukumaru No.5

Last reported at 2017-Jan-16 21:21 UTC. Time now 2017-Jan-17 17:14 UTC.
Position N 35°06' E 139°40'.

Length 75 m; draft 4.4 m.

Type: Cargo ship. MMSI: 431001371.

Date/timePositionNaut miles runAvg speedWind from/ knotsBaromVisibWave heightAir tempDewpointWater temp
2017-Jan-16 21:21N 35°06' E 139°40'1011.3
2017-Jan-16 20:30N 35°14' E 139°46'1010.4
2017-Jan-16 19:33N 35°24' E 139°43'6 5.8
2017-Jan-16 18:33N 35°22' E 139°50'0 0.0
2017-Jan-16 17:31N 35°22' E 139°50'0 0.0
2017-Jan-16 16:25N 35°22' E 139°50'0 0.0
2017-Jan-16 15:31N 35°22' E 139°50'0 0.0
2017-Jan-16 14:28N 35°22' E 139°50'0 0.0
2017-Jan-16 13:28N 35°22' E 139°50'0 0.0
2017-Jan-16 12:31N 35°22' E 139°50'0 0.0
2017-Jan-16 11:28N 35°22' E 139°50'0 0.0
2017-Jan-16 10:31N 35°22' E 139°50'0 0.0
2017-Jan-16 09:31N 35°22' E 139°50'0 0.0
2017-Jan-16 08:10N 35°22' E 139°50'0 0.1
2017-Jan-16 07:16N 35°22' E 139°50'0 0.0
2017-Jan-16 06:31N 35°22' E 139°50'0 0.0
2017-Jan-16 05:22N 35°22' E 139°50'0 0.1
2017-Jan-16 04:25N 35°22' E 139°50'0 0.0
2017-Jan-16 03:28N 35°22' E 139°50'0 0.0
2017-Jan-16 02:28N 35°22' E 139°50'0 0.0
2017-Jan-16 01:28N 35°22' E 139°50'0 0.0
2017-Jan-16 00:31N 35°22' E 139°50'1 1.2
2017-Jan-15 23:29N 35°22' E 139°51'0 0.0
2017-Jan-15 22:25N 35°22' E 139°51'0 0.0
2017-Jan-15 21:31N 35°22' E 139°51'0 0.0
2017-Jan-15 20:31N 35°22' E 139°51'0 0.0
2017-Jan-15 19:31N 35°22' E 139°51'0 0.0
2017-Jan-15 18:31N 35°22' E 139°51'0 0.0
2017-Jan-15 17:28N 35°22' E 139°51'0 0.0
2017-Jan-15 16:31N 35°22' E 139°51'0 0.0
2017-Jan-15 15:28N 35°22' E 139°51'0 0.0
2017-Jan-15 14:30N 35°22' E 139°51'0 0.0
2017-Jan-15 13:27N 35°22' E 139°51'0 0.0
2017-Jan-15 12:31N 35°22' E 139°51'0 0.0
2017-Jan-15 11:30N 35°22' E 139°51'0 0.0
2017-Jan-15 10:30N 35°22' E 139°51'0 0.0
2017-Jan-15 09:31N 35°22' E 139°51'0 0.0
2017-Jan-15 08:31N 35°22' E 139°51'0 0.0
2017-Jan-15 07:34N 35°22' E 139°51'0 0.0
2017-Jan-15 06:28N 35°22' E 139°51'0 0.0
2017-Jan-15 05:33N 35°22' E 139°51'0 0.0
2017-Jan-15 04:33N 35°22' E 139°51'0 0.0
2017-Jan-15 03:33N 35°22' E 139°51'0 0.0
2017-Jan-15 01:27N 35°22' E 139°51'0 0.0
2017-Jan-15 00:27N 35°22' E 139°51'0 0.0
2017-Jan-14 23:33N 35°22' E 139°51'0 0.0
2017-Jan-14 22:24N 35°22' E 139°51'0 0.0
2017-Jan-14 21:33N 35°22' E 139°51'0 0.0
2017-Jan-14 20:33N 35°22' E 139°51'0 0.0
2017-Jan-14 19:33N 35°22' E 139°51'0 0.0
2017-Jan-14 18:33N 35°22' E 139°51'0 0.0
2017-Jan-14 17:33N 35°22' E 139°51'0 0.0
2017-Jan-14 16:33N 35°22' E 139°51'0 0.0
2017-Jan-14 15:33N 35°22' E 139°51'0 0.0
2017-Jan-14 14:33N 35°22' E 139°51'0 0.0
2017-Jan-14 13:33N 35°22' E 139°51'0 0.0
2017-Jan-14 12:24N 35°22' E 139°51'0 0.0
2017-Jan-14 11:30N 35°22' E 139°51'0 0.4
2017-Jan-14 10:33N 35°21' E 139°51'5 5.4
2017-Jan-14 09:33N 35°27' E 139°49'1110.3
2017-Jan-14 08:31N 35°36' E 139°56'0 0.0
2017-Jan-14 07:32N 35°36' E 139°56'0 0.0
2017-Jan-14 06:32N 35°36' E 139°56'0 0.0
2017-Jan-14 05:32N 35°36' E 139°56'0 0.0
2017-Jan-14 04:32N 35°36' E 139°56'0 0.0
2017-Jan-14 03:29N 35°36' E 139°56'0 0.0
2017-Jan-13 23:29N 35°36' E 139°56'0 0.0
2017-Jan-13 22:29N 35°36' E 139°56'0 0.1
2017-Jan-13 21:33N 35°36' E 139°56'0 0.0
2017-Jan-13 20:33N 35°36' E 139°56'0 0.0
2017-Jan-13 19:33N 35°36' E 139°56'5 4.1
2017-Jan-13 18:26N 35°40' E 139°57'0 0.0
2017-Jan-13 14:27N 35°40' E 139°57'3 3.5
2017-Jan-13 13:33N 35°37' E 139°58'0 0.0
2017-Jan-13 12:33N 35°37' E 139°58'0 0.0
2017-Jan-13 11:33N 35°37' E 139°58'0 0.0
2017-Jan-13 10:33N 35°37' E 139°58'0 0.0
2017-Jan-13 09:33N 35°37' E 139°58'0 0.0
2017-Jan-13 08:33N 35°37' E 139°58'3 0.4
2017-Jan-13 00:14N 35°41' E 139°58'4 1.5
2017-Jan-12 21:33N 35°37' E 139°58'1111.4
2017-Jan-12 20:33N 35°27' E 139°50'1110.8
2017-Jan-12 19:33N 35°17' E 139°45'246 9.8
2017-Jan-11 18:33N 34°01' E 135°02'1212.0
2017-Jan-11 17:33N 34°13' E 135°02'1211.9
2017-Jan-11 16:31N 34°24' E 135°09'1212.0
2017-Jan-11 15:33N 34°33' E 135°18'7 6.7
2017-Jan-11 14:30N 34°34' E 135°27'0 0.0
2017-Jan-11 13:28N 34°34' E 135°27'0 0.0
2017-Jan-11 12:22N 34°34' E 135°27'0 0.2
2017-Jan-11 10:29N 34°34' E 135°27'0 0.0
2017-Jan-11 09:28N 34°34' E 135°27'0 0.0
2017-Jan-10 20:29N 34°34' E 135°27'0 0.0
2017-Jan-10 19:23N 34°34' E 135°27'0 0.0
2017-Jan-10 16:23N 34°34' E 135°27'0 0.1
2017-Jan-10 14:09N 34°34' E 135°27'0 0.3
2017-Jan-10 13:15N 34°34' E 135°27'0 0.0
2017-Jan-10 00:33N 34°34' E 135°27'0 0.1
2017-Jan-09 23:22N 34°34' E 135°27'7 8.4
2017-Jan-09 22:33N 34°33' E 135°19'1813.5
2017-Jan-09 21:11N 34°19' E 135°04'5 7.8
2017-Jan-09 20:33N 34°15' E 135°07'0 0.0
2017-Jan-09 19:33N 34°15' E 135°07'0 0.0
2017-Jan-09 18:33N 34°15' E 135°07'0 0.0
2017-Jan-09 17:09N 34°15' E 135°07'0 0.0
2017-Jan-09 16:33N 34°15' E 135°07'0 0.0
2017-Jan-09 15:33N 34°15' E 135°07'0 0.0
2017-Jan-09 14:33N 34°15' E 135°07'0 0.0
2017-Jan-09 13:27N 34°15' E 135°07'0 0.0
2017-Jan-09 12:33N 34°15' E 135°07'0 0.0
2017-Jan-09 11:33N 34°15' E 135°07'0 0.0
2017-Jan-09 10:33N 34°15' E 135°07'0 0.0
2017-Jan-09 09:27N 34°15' E 135°07'0 0.0
2017-Jan-09 08:33N 34°15' E 135°07'1 0.7
2017-Jan-09 07:34N 34°15' E 135°06'4 3.4
2017-Jan-09 06:21N 34°18' E 135°04'1011.9
2017-Jan-09 05:33N 34°26' E 135°11'1211.6
2017-Jan-09 04:31N 34°35' E 135°21'5 0.8
2017-Jan-08 22:32N 34°35' E 135°27'0 0.0
2017-Jan-08 15:21N 34°35' E 135°27'0 0.0
2017-Jan-08 14:09N 34°35' E 135°27'0 0.1
2017-Jan-08 13:09N 34°35' E 135°27'0 0.0
2017-Jan-08 11:09N 34°35' E 135°27'0 0.0
2017-Jan-08 10:09N 34°35' E 135°27'0 0.0
2017-Jan-08 05:21N 34°35' E 135°27'0 0.0
2017-Jan-08 04:21N 34°35' E 135°27'0 0.0
2017-Jan-08 01:15N 34°35' E 135°27'0 0.0
2017-Jan-07 23:09N 34°35' E 135°27'0 0.0
2017-Jan-07 22:09N 34°35' E 135°27'0 0.0
2017-Jan-07 21:27N 34°35' E 135°27'0 0.0
2017-Jan-07 20:15N 34°35' E 135°27'0 0.0
2017-Jan-07 18:33N 34°35' E 135°27'0 0.0
2017-Jan-07 15:25N 34°35' E 135°27'5 5.2
2017-Jan-07 14:33N 34°35' E 135°21'1111.1
2017-Jan-07 13:31N 34°27' E 135°12'1410.3
2017-Jan-07 12:10N 34°15' E 135°03'  

Dump ship's entire track history